Time;durP1;ratioP1;P1;durP2;ratioP2;P2;SDS_P1;SDS_P2;PMS_P1;PMS_P2;Temp;Humidity;BMP_temperature;BMP_pressure;BME280_temperature;BME280_humidity;BME280_pressure;Samples;Min_cycle;Max_cycle;Signal;HPM_P1;HPM_P2
2023/08/30 00:00:12;;;;;;;22.42;18.20;;;14.20;99.90;;;;;;5033467;28;20045;-62
2023/08/30 00:02:37;;;;;;;23.80;19.20;;;14.10;99.90;;;;;;5047247;28;20064;-64
2023/08/30 00:05:04;;;;;;;20.92;17.48;;;14.10;99.90;;;;;;5046332;28;20668;-63
2023/08/30 00:07:30;;;;;;;25.90;18.92;;;14.10;99.90;;;;;;5060882;28;20040;-64
2023/08/30 00:09:58;;;;;;;21.90;17.55;;;14.00;99.90;;;;;;5065852;28;20086;-63
2023/08/30 00:12:25;;;;;;;23.60;18.63;;;14.00;99.90;;;;;;5065501;28;20613;-62
2023/08/30 00:14:51;;;;;;;25.23;19.35;;;13.90;99.90;;;;;;5066641;28;20105;-62
2023/08/30 00:17:17;;;;;;;25.73;20.42;;;13.90;99.90;;;;;;5047739;28;20135;-62
2023/08/30 00:19:43;;;;;;;24.00;18.40;;;13.90;99.90;;;;;;5066520;28;20123;-64
2023/08/30 00:22:09;;;;;;;24.35;19.83;;;13.80;99.90;;;;;;5052936;28;20143;-62
2023/08/30 00:24:35;;;;;;;22.10;17.75;;;13.80;99.90;;;;;;5046993;28;20052;-67
2023/08/30 00:27:03;;;;;;;22.10;18.77;;;13.70;99.90;;;;;;5058986;28;20056;-65
2023/08/30 00:29:29;;;;;;;21.45;18.42;;;13.70;99.90;;;;;;5058029;28;20218;-63
2023/08/30 00:31:55;;;;;;;23.70;19.05;;;13.60;99.90;;;;;;5046898;28;20487;-62
2023/08/30 00:34:20;;;;;;;23.80;19.80;;;13.60;99.90;;;;;;5046444;28;20044;-66
2023/08/30 00:36:46;;;;;;;22.60;18.42;;;13.50;99.90;;;;;;5053003;28;20067;-63
2023/08/30 00:39:12;;;;;;;25.75;20.35;;;13.50;99.90;;;;;;5066050;28;20045;-63
2023/08/30 00:41:38;;;;;;;27.35;21.00;;;13.50;99.90;;;;;;5024692;28;20049;-63
2023/08/30 00:44:04;;;;;;;26.45;20.33;;;13.50;99.90;;;;;;5021213;28;20338;-65
2023/08/30 00:46:30;;;;;;;24.30;20.75;;;13.50;99.90;;;;;;5025954;28;20037;-64
2023/08/30 00:48:56;;;;;;;27.70;20.20;;;13.40;99.90;;;;;;5038313;28;20872;-63
2023/08/30 00:51:22;;;;;;;26.55;19.85;;;13.40;99.90;;;;;;5047574;28;20116;-64
2023/08/30 00:53:48;;;;;;;25.90;19.92;;;13.40;99.90;;;;;;5029179;28;20488;-65
2023/08/30 00:56:14;;;;;;;27.00;21.85;;;13.30;99.90;;;;;;5028425;28;20040;-64
2023/08/30 00:58:40;;;;;;;25.70;19.92;;;13.30;99.90;;;;;;5058184;28;20429;-63
2023/08/30 01:01:09;;;;;;;25.80;20.48;;;13.30;99.90;;;;;;5065546;28;20052;-64
2023/08/30 01:03:35;;;;;;;25.17;19.75;;;13.30;99.90;;;;;;5047719;28;20468;-63
2023/08/30 01:06:01;;;;;;;26.55;20.40;;;13.20;99.90;;;;;;5043324;28;20049;-65
2023/08/30 01:08:27;;;;;;;27.88;20.90;;;13.20;99.90;;;;;;5045411;28;20042;-64
2023/08/30 01:11:15;;;;;;;25.13;20.08;;;13.20;99.90;;;;;;5044748;28;20048;-66
2023/08/30 01:13:47;;;;;;;28.08;20.80;;;13.20;99.90;;;;;;5045133;28;20050;-65
2023/08/30 01:16:14;;;;;;;24.35;20.25;;;13.20;99.90;;;;;;5046647;28;20037;-63
2023/08/30 01:18:41;;;;;;;29.20;21.75;;;13.20;99.90;;;;;;5046345;28;20252;-63
2023/08/30 01:21:17;;;;;;;25.13;20.65;;;13.20;99.90;;;;;;5046834;28;20078;-64
2023/08/30 01:23:49;;;;;;;28.38;21.27;;;13.20;99.90;;;;;;5046706;28;20106;-63
2023/08/30 01:27:03;;;;;;;28.58;21.15;;;13.20;99.90;;;;;;5045564;28;20041;-64
2023/08/30 01:29:31;;;;;;;32.95;20.98;;;13.20;99.90;;;;;;5040247;28;20049;-63
2023/08/30 01:31:57;;;;;;;24.92;20.42;;;13.20;99.90;;;;;;5064639;28;20241;-63
2023/08/30 01:34:23;;;;;;;28.65;20.55;;;13.20;99.90;;;;;;5062678;28;20048;-64
2023/08/30 01:36:49;;;;;;;26.20;21.13;;;13.20;99.90;;;;;;5052676;28;20470;-65
2023/08/30 01:39:16;;;;;;;30.52;20.23;;;13.20;99.90;;;;;;5044856;28;20098;-64
2023/08/30 01:41:42;;;;;;;26.98;20.40;;;13.20;99.90;;;;;;5043280;28;20045;-62
2023/08/30 01:44:09;;;;;;;29.02;21.40;;;13.20;99.90;;;;;;5046015;28;20102;-64
2023/08/30 01:46:36;;;;;;;28.40;21.77;;;13.20;99.90;;;;;;5063001;28;20418;-63
2023/08/30 01:49:04;;;;;;;32.92;23.65;;;13.20;99.90;;;;;;5042854;28;20148;-65
2023/08/30 01:51:30;;;;;;;27.67;21.55;;;13.20;99.90;;;;;;5052991;28;20041;-64
2023/08/30 01:53:57;;;;;;;29.40;21.92;;;13.20;99.90;;;;;;5044764;28;20033;-63
2023/08/30 01:56:22;;;;;;;29.95;20.88;;;13.20;99.90;;;;;;5043360;28;20052;-62
2023/08/30 01:58:48;;;;;;;30.35;22.85;;;13.20;99.90;;;;;;5044634;28;20049;-63
2023/08/30 02:01:14;;;;;;;25.92;19.85;;;13.20;99.90;;;;;;5056374;28;20400;-63
2023/08/30 02:03:43;;;;;;;27.77;21.83;;;13.20;99.90;;;;;;5064376;28;20132;-63
2023/08/30 02:06:14;;;;;;;26.67;20.75;;;13.20;99.90;;;;;;5058052;28;20519;-63
2023/08/30 02:09:03;;;;;;;28.55;20.65;;;13.20;99.90;;;;;;5063731;28;20051;-63
2023/08/30 02:11:30;;;;;;;27.17;19.40;;;13.20;99.90;;;;;;5061386;28;20048;-62
2023/08/30 02:13:58;;;;;;;28.30;19.25;;;13.20;99.90;;;;;;5064307;28;20099;-65
2023/08/30 02:16:26;;;;;;;25.10;19.13;;;13.20;99.90;;;;;;5064222;28;20040;-63
2023/08/30 02:18:52;;;;;;;21.80;17.55;;;13.20;99.90;;;;;;5048403;28;20606;-66
2023/08/30 02:21:18;;;;;;;23.90;18.67;;;13.10;99.90;;;;;;5045522;28;20044;-64
2023/08/30 02:23:48;;;;;;;22.92;17.73;;;13.10;99.90;;;;;;5043772;28;20094;-64
2023/08/30 02:26:14;;;;;;;23.58;17.77;;;13.10;99.90;;;;;;5048106;28;20044;-63
2023/08/30 02:28:39;;;;;;;23.92;17.02;;;13.10;99.90;;;;;;5063574;28;20130;-63
2023/08/30 02:31:05;;;;;;;22.50;17.40;;;13.10;99.90;;;;;;5049862;28;20120;-65
2023/08/30 02:33:30;;;;;;;21.58;17.05;;;13.10;99.90;;;;;;5058197;28;20558;-63
2023/08/30 02:35:56;;;;;;;22.73;17.45;;;13.00;99.90;;;;;;5059166;28;20040;-63
2023/08/30 02:38:22;;;;;;;20.98;16.30;;;13.00;99.90;;;;;;5065150;28;20055;-65
2023/08/30 02:40:47;;;;;;;21.95;17.45;;;13.00;99.90;;;;;;5063574;28;20059;-63
2023/08/30 02:43:13;;;;;;;24.15;18.00;;;13.00;99.90;;;;;;5047943;28;20080;-63
2023/08/30 02:45:38;;;;;;;21.95;15.48;;;12.90;99.90;;;;;;5056756;28;20037;-62
2023/08/30 02:48:07;;;;;;;24.15;17.13;;;12.90;99.90;;;;;;5043319;28;20531;-64
2023/08/30 02:50:32;;;;;;;23.00;16.88;;;12.90;99.90;;;;;;5057284;28;20045;-64
2023/08/30 02:52:58;;;;;;;23.60;16.60;;;12.90;99.90;;;;;;5060434;28;20047;-64
2023/08/30 02:55:23;;;;;;;21.17;15.85;;;12.80;99.90;;;;;;5058233;28;20491;-63
2023/08/30 02:57:49;;;;;;;22.70;16.45;;;12.80;99.90;;;;;;5058184;28;20721;-63
2023/08/30 03:00:15;;;;;;;23.65;15.07;;;12.80;99.90;;;;;;5026857;28;20052;-67
2023/08/30 03:02:41;;;;;;;21.83;16.30;;;12.80;99.90;;;;;;5044025;28;20131;-62
2023/08/30 03:05:07;;;;;;;21.85;16.80;;;12.70;99.90;;;;;;5042988;28;20128;-62
2023/08/30 03:07:32;;;;;;;21.85;15.93;;;12.80;99.90;;;;;;5056959;28;20036;-62
2023/08/30 03:09:58;;;;;;;22.77;15.82;;;12.80;99.90;;;;;;5064144;28;20197;-63
2023/08/30 03:12:23;;;;;;;23.60;16.67;;;12.70;99.90;;;;;;5062611;28;20574;-61
2023/08/30 03:14:49;;;;;;;20.15;15.82;;;12.70;99.90;;;;;;5051761;28;20071;-63
2023/08/30 03:17:15;;;;;;;21.38;17.20;;;12.70;99.90;;;;;;5045390;28;20045;-64
2023/08/30 03:19:40;;;;;;;20.42;15.35;;;12.70;99.90;;;;;;5044384;28;20041;-63
2023/08/30 03:22:06;;;;;;;22.13;15.93;;;12.60;99.90;;;;;;5057832;28;20111;-64
2023/08/30 03:24:31;;;;;;;21.42;15.48;;;12.60;99.90;;;;;;5068430;28;20099;-67
2023/08/30 03:26:57;;;;;;;20.52;15.93;;;12.50;99.90;;;;;;5066937;28;20040;-63
2023/08/30 03:29:22;;;;;;;20.38;15.57;;;12.40;99.90;;;;;;5067539;28;20065;-63
2023/08/30 03:31:48;;;;;;;23.55;17.10;;;12.40;99.90;;;;;;5059180;28;20066;-63
2023/08/30 03:34:14;;;;;;;24.27;16.98;;;12.30;99.90;;;;;;5068434;28;20068;-62
2023/08/30 03:36:42;;;;;;;24.67;16.30;;;12.20;99.90;;;;;;5056365;28;20511;-63
2023/08/30 03:39:07;;;;;;;23.50;16.38;;;12.20;99.90;;;;;;5081160;28;20128;-64
2023/08/30 03:41:33;;;;;;;23.88;16.17;;;12.10;99.90;;;;;;5055300;28;20135;-63
2023/08/30 03:43:59;;;;;;;25.50;17.42;;;12.10;99.90;;;;;;5067796;28;20044;-63
2023/08/30 03:46:24;;;;;;;24.88;16.90;;;12.00;99.90;;;;;;5067126;28;20415;-64
2023/08/30 03:48:50;;;;;;;23.65;17.38;;;12.00;99.90;;;;;;5066702;28;20507;-63
2023/08/30 03:51:15;;;;;;;24.55;16.73;;;12.00;99.90;;;;;;5056042;28;20040;-64
2023/08/30 03:53:41;;;;;;;23.42;15.52;;;12.10;99.90;;;;;;5084006;28;20043;-63
2023/08/30 03:56:07;;;;;;;25.20;17.20;;;12.00;99.90;;;;;;5066029;28;20048;-66
2023/08/30 03:58:33;;;;;;;23.92;16.45;;;12.00;99.90;;;;;;5043120;28;20060;-64
2023/08/30 04:00:58;;;;;;;24.15;15.77;;;12.00;99.90;;;;;;5035148;28;20391;-64
2023/08/30 04:03:24;;;;;;;22.50;16.13;;;12.00;99.90;;;;;;5061181;28;20592;-63
2023/08/30 04:05:56;;;;;;;21.38;15.65;;;11.90;99.90;;;;;;5060960;28;20032;-63
2023/08/30 04:08:21;;;;;;;19.92;14.68;;;11.80;99.90;;;;;;5026937;28;20049;-62
2023/08/30 04:10:49;;;;;;;23.45;15.75;;;11.70;99.90;;;;;;5027515;28;20052;-65
2023/08/30 04:13:15;;;;;;;22.42;15.10;;;11.60;99.90;;;;;;5027375;28;20128;-63
2023/08/30 04:15:41;;;;;;;20.63;15.70;;;11.50;99.90;;;;;;5028209;28;20056;-64
2023/08/30 04:18:06;;;;;;;22.38;15.40;;;11.50;99.90;;;;;;5048960;28;20074;-63
2023/08/30 04:20:33;;;;;;;23.58;15.90;;;11.50;99.90;;;;;;5064504;28;20431;-65
2023/08/30 04:23:01;;;;;;;25.38;17.13;;;11.40;99.90;;;;;;5048172;28;20114;-65
2023/08/30 04:25:27;;;;;;;23.45;15.68;;;11.40;99.90;;;;;;5047034;28;20041;-64
2023/08/30 04:27:53;;;;;;;23.20;14.85;;;11.30;99.90;;;;;;5045806;28;20261;-63
2023/08/30 04:30:19;;;;;;;23.88;15.82;;;11.20;99.90;;;;;;5046330;28;20055;-63
2023/08/30 04:32:47;;;;;;;27.05;16.13;;;11.20;99.90;;;;;;5045192;28;20041;-65
2023/08/30 04:35:13;;;;;;;28.65;17.00;;;11.20;99.90;;;;;;5045712;28;20076;-65
2023/08/30 04:37:39;;;;;;;21.50;15.88;;;11.10;99.90;;;;;;5031337;28;20051;-64
2023/08/30 04:40:09;;;;;;;27.25;17.00;;;11.10;99.90;;;;;;5053234;28;20044;-63
2023/08/30 04:42:35;;;;;;;23.33;16.70;;;11.00;99.90;;;;;;5065415;28;20064;-65
2023/08/30 04:45:01;;;;;;;27.23;17.75;;;10.90;99.90;;;;;;5065956;28;20044;-65
2023/08/30 04:47:31;;;;;;;30.20;18.17;;;11.00;99.90;;;;;;5049017;28;20388;-63
2023/08/30 04:49:57;;;;;;;26.45;17.63;;;11.00;99.90;;;;;;5065651;28;20127;-63
2023/08/30 04:52:23;;;;;;;24.67;17.10;;;10.90;99.90;;;;;;5050584;28;20786;-64
2023/08/30 04:54:51;;;;;;;26.52;17.88;;;10.90;99.90;;;;;;5044888;28;20128;-62
2023/08/30 04:57:17;;;;;;;25.75;17.63;;;10.90;99.90;;;;;;5045844;28;20064;-65
2023/08/30 04:59:44;;;;;;;26.40;16.95;;;10.90;99.90;;;;;;5047673;28;20098;-62
2023/08/30 05:02:10;;;;;;;31.35;18.58;;;10.90;99.90;;;;;;5044904;28;20403;-63
2023/08/30 05:04:36;;;;;;;26.50;18.70;;;10.90;99.90;;;;;;5045106;28;20056;-64
2023/08/30 05:07:02;;;;;;;27.70;17.67;;;10.90;99.90;;;;;;5042206;28;20041;-64
2023/08/30 05:09:29;;;;;;;23.42;16.48;;;10.90;99.90;;;;;;5047024;28;20408;-67
2023/08/30 05:11:55;;;;;;;24.60;17.35;;;10.90;99.90;;;;;;5045553;28;20052;-63
2023/08/30 05:14:20;;;;;;;26.95;17.38;;;10.90;99.90;;;;;;5061395;28;20411;-64
2023/08/30 05:16:49;;;;;;;25.48;18.58;;;11.00;99.90;;;;;;5065174;28;20430;-66
2023/08/30 05:19:16;;;;;;;26.85;19.00;;;11.00;99.90;;;;;;5063342;28;20051;-66
2023/08/30 05:21:43;;;;;;;28.27;18.50;;;11.00;99.90;;;;;;5054924;28;20043;-64
2023/08/30 05:24:08;;;;;;;29.75;18.58;;;11.10;99.90;;;;;;5046617;28;20067;-64
2023/08/30 05:26:34;;;;;;;29.88;19.65;;;11.10;99.90;;;;;;5045270;28;20037;-63
2023/08/30 05:29:00;;;;;;;26.42;18.48;;;11.20;99.90;;;;;;5046470;28;20040;-63
2023/08/30 05:31:25;;;;;;;28.30;18.83;;;11.20;99.90;;;;;;5044773;28;20368;-63
2023/08/30 05:33:51;;;;;;;29.27;19.02;;;11.30;99.90;;;;;;5044327;28;20159;-65
2023/08/30 05:36:17;;;;;;;28.98;19.38;;;11.40;99.90;;;;;;5048449;28;20407;-63
2023/08/30 05:38:43;;;;;;;30.77;20.02;;;11.50;99.90;;;;;;5045317;28;20057;-63
2023/08/30 05:41:09;;;;;;;27.13;19.27;;;11.60;99.90;;;;;;5026923;28;20412;-63
2023/08/30 05:43:35;;;;;;;27.88;19.45;;;11.60;99.90;;;;;;5043813;28;20416;-65
2023/08/30 05:46:03;;;;;;;26.05;18.27;;;11.70;99.90;;;;;;5044923;28;20048;-67
2023/08/30 05:48:29;;;;;;;26.27;18.80;;;11.70;99.90;;;;;;5044654;28;20695;-63
2023/08/30 05:50:55;;;;;;;29.65;19.13;;;11.80;99.90;;;;;;5043511;28;20040;-63
2023/08/30 05:53:20;;;;;;;24.67;17.60;;;11.80;99.90;;;;;;5024654;28;20124;-65
2023/08/30 05:55:46;;;;;;;27.15;19.05;;;11.90;99.90;;;;;;5040816;28;20044;-63
2023/08/30 05:58:13;;;;;;;28.35;18.25;;;11.90;99.90;;;;;;5029605;28;20383;-67
2023/08/30 06:00:39;;;;;;;23.85;17.60;;;12.00;99.90;;;;;;5043087;28;20385;-63
2023/08/30 06:03:05;;;;;;;23.92;17.23;;;12.10;99.90;;;;;;5048718;28;20053;-63
2023/08/30 06:05:30;;;;;;;25.00;17.38;;;12.10;99.90;;;;;;5062848;28;20117;-65
2023/08/30 06:07:57;;;;;;;22.13;16.52;;;12.20;99.90;;;;;;5042326;28;20041;-64
2023/08/30 06:10:23;;;;;;;21.15;15.80;;;12.30;99.90;;;;;;5040253;28;20040;-62
2023/08/30 06:12:48;;;;;;;23.10;16.25;;;12.30;99.90;;;;;;5044921;28;20745;-65
2023/08/30 06:15:14;;;;;;;22.10;15.70;;;12.50;99.90;;;;;;5045453;28;20055;-63
2023/08/30 06:17:40;;;;;;;23.73;15.85;;;12.50;99.90;;;;;;5062497;28;20063;-64
2023/08/30 06:20:06;;;;;;;23.98;15.98;;;12.60;99.90;;;;;;5044047;28;20086;-64
2023/08/30 06:22:32;;;;;;;26.58;15.23;;;12.60;99.90;;;;;;5046929;28;20171;-65
2023/08/30 06:24:57;;;;;;;22.83;14.88;;;12.70;99.90;;;;;;5059243;28;20400;-64
2023/08/30 06:27:23;;;;;;;21.13;14.07;;;12.80;99.90;;;;;;5062630;28;20048;-64
2023/08/30 06:29:50;;;;;;;19.98;13.75;;;12.90;99.90;;;;;;5053641;28;20408;-64
2023/08/30 06:32:16;;;;;;;22.60;13.90;;;12.90;99.90;;;;;;5053726;28;20049;-66
2023/08/30 06:34:42;;;;;;;22.30;13.73;;;13.00;99.90;;;;;;5043832;28;20057;-62
2023/08/30 06:37:08;;;;;;;23.23;14.15;;;13.10;99.90;;;;;;5042849;28;20033;-63
2023/08/30 06:39:35;;;;;;;20.83;13.55;;;13.10;99.90;;;;;;5046096;28;20106;-65
2023/08/30 06:42:01;;;;;;;20.60;15.00;;;13.20;99.90;;;;;;5043085;28;20495;-64
2023/08/30 06:44:27;;;;;;;22.17;14.82;;;13.30;99.90;;;;;;5027131;28;20122;-64
2023/08/30 06:46:52;;;;;;;21.25;13.20;;;13.40;99.90;;;;;;5055555;28;20691;-65
2023/08/30 06:49:18;;;;;;;21.02;13.48;;;13.40;99.90;;;;;;5047790;28;20044;-64
2023/08/30 06:51:43;;;;;;;21.30;12.73;;;13.50;99.90;;;;;;5044578;28;20045;-64
2023/08/30 06:54:09;;;;;;;19.67;12.70;;;13.60;99.90;;;;;;5042824;28;20060;-65
2023/08/30 06:56:34;;;;;;;20.30;13.43;;;13.70;99.90;;;;;;5043428;28;20041;-65
2023/08/30 06:59:00;;;;;;;17.70;12.77;;;13.80;99.90;;;;;;5043798;28;20036;-64
2023/08/30 07:01:26;;;;;;;20.13;13.00;;;13.80;99.90;;;;;;5045980;28;20029;-63
2023/08/30 07:03:51;;;;;;;21.60;13.55;;;13.90;99.90;;;;;;5061357;28;20055;-65
2023/08/30 07:06:17;;;;;;;18.75;12.60;;;13.90;99.90;;;;;;5057756;28;20052;-66
2023/08/30 07:08:42;;;;;;;18.65;12.48;;;14.00;99.90;;;;;;5065190;28;20097;-63
2023/08/30 07:11:08;;;;;;;16.95;12.15;;;14.00;99.90;;;;;;5049821;28;20408;-66
2023/08/30 07:13:34;;;;;;;18.35;12.30;;;14.00;99.90;;;;;;5051860;28;20041;-67
2023/08/30 07:16:00;;;;;;;18.35;13.05;;;14.00;99.90;;;;;;5052321;28;20044;-64
2023/08/30 07:18:25;;;;;;;21.33;12.98;;;14.00;99.90;;;;;;5055167;28;20059;-65
2023/08/30 07:20:51;;;;;;;18.52;12.05;;;14.00;99.90;;;;;;5054402;28;20099;-67
2023/08/30 07:23:16;;;;;;;19.73;12.40;;;14.10;99.90;;;;;;5053305;28;20051;-65
2023/08/30 07:25:42;;;;;;;22.40;13.20;;;14.10;99.90;;;;;;5038429;28;20037;-65
2023/08/30 07:28:08;;;;;;;20.27;12.38;;;14.10;99.90;;;;;;5052592;28;20528;-65
2023/08/30 07:30:35;;;;;;;18.80;12.23;;;14.10;99.90;;;;;;5052514;28;20542;-64
2023/08/30 07:33:00;;;;;;;21.88;12.70;;;14.10;99.90;;;;;;5050682;28;20051;-66
2023/08/30 07:35:26;;;;;;;20.00;12.90;;;14.10;99.90;;;;;;5051366;28;20259;-65
2023/08/30 07:37:51;;;;;;;19.13;12.68;;;14.20;99.90;;;;;;5030879;28;20122;-64
2023/08/30 07:40:17;;;;;;;20.08;13.45;;;14.10;99.90;;;;;;5037593;28;20120;-65
2023/08/30 07:42:43;;;;;;;21.13;12.98;;;14.20;99.90;;;;;;5045633;28;20155;-65
2023/08/30 07:45:09;;;;;;;19.42;12.70;;;14.20;99.90;;;;;;5036453;28;20059;-68
2023/08/30 07:47:35;;;;;;;20.20;13.23;;;14.20;99.90;;;;;;5039897;28;20121;-64
2023/08/30 07:50:00;;;;;;;17.90;13.02;;;14.30;99.90;;;;;;5043101;28;20041;-64
2023/08/30 07:52:26;;;;;;;22.30;13.38;;;14.30;99.90;;;;;;5058319;28;20494;-63
2023/08/30 07:54:51;;;;;;;18.27;11.93;;;14.40;99.90;;;;;;5060733;28;20048;-65
2023/08/30 07:57:17;;;;;;;19.02;11.98;;;14.40;99.90;;;;;;5024595;28;20613;-64
2023/08/30 07:59:42;;;;;;;20.05;12.65;;;14.50;99.90;;;;;;5023376;28;20563;-65
2023/08/30 08:02:08;;;;;;;22.27;13.25;;;14.50;99.90;;;;;;5044922;28;20044;-64
2023/08/30 08:04:35;;;;;;;19.05;12.52;;;14.60;99.90;;;;;;5063494;28;20195;-67
2023/08/30 08:07:01;;;;;;;17.48;11.65;;;14.70;99.90;;;;;;5059560;28;20036;-63
2023/08/30 08:09:27;;;;;;;16.80;11.70;;;14.70;99.90;;;;;;5066566;28;20080;-64
2023/08/30 08:11:53;;;;;;;20.08;12.18;;;14.70;99.90;;;;;;5054915;28;20072;-65
2023/08/30 08:14:18;;;;;;;16.33;11.65;;;14.80;99.90;;;;;;5047706;28;20044;-66
2023/08/30 08:16:44;;;;;;;17.65;12.05;;;14.80;99.90;;;;;;5048000;28;20040;-63
2023/08/30 08:19:09;;;;;;;16.08;11.38;;;14.80;99.90;;;;;;5040897;28;20041;-64
2023/08/30 08:21:35;;;;;;;17.70;11.60;;;14.90;99.90;;;;;;5060548;28;20036;-64
2023/08/30 08:24:01;;;;;;;19.20;10.88;;;15.00;99.90;;;;;;5066393;28;20132;-64
2023/08/30 08:26:27;;;;;;;20.73;11.38;;;15.10;99.90;;;;;;5054001;28;20097;-65
2023/08/30 08:28:55;;;;;;;17.25;11.88;;;15.10;99.90;;;;;;5055204;28;20044;-63
2023/08/30 08:31:20;;;;;;;18.23;11.30;;;15.20;99.90;;;;;;5047816;28;20044;-69
2023/08/30 08:33:48;;;;;;;20.27;12.52;;;15.20;99.90;;;;;;5059865;28;20048;-63
2023/08/30 08:36:14;;;;;;;17.02;11.73;;;15.30;99.90;;;;;;5043150;28;20120;-65
2023/08/30 08:38:40;;;;;;;20.15;11.48;;;15.30;99.90;;;;;;5047214;28;20762;-65
2023/08/30 08:41:10;;;;;;;18.75;12.30;;;15.30;99.90;;;;;;5028640;28;20131;-63
2023/08/30 08:43:36;;;;;;;18.55;12.60;;;15.30;99.90;;;;;;5044124;28;20638;-62
2023/08/30 08:46:03;;;;;;;17.33;11.57;;;15.30;99.90;;;;;;5047095;28;20782;-64
2023/08/30 08:48:31;;;;;;;20.23;11.77;;;15.40;99.90;;;;;;5045419;28;20614;-62
2023/08/30 08:50:57;;;;;;;19.63;11.80;;;15.40;99.90;;;;;;5029412;28;20041;-63
2023/08/30 08:53:23;;;;;;;19.20;12.25;;;15.50;99.90;;;;;;5065154;28;20055;-64
2023/08/30 08:55:49;;;;;;;19.25;12.77;;;15.50;99.90;;;;;;5057068;28;20045;-62
2023/08/30 08:58:15;;;;;;;19.02;12.95;;;15.60;99.90;;;;;;5034518;28;20045;-62
2023/08/30 09:00:45;;;;;;;21.17;13.25;;;15.70;99.90;;;;;;5025645;28;20081;-66
2023/08/30 09:03:11;;;;;;;20.50;11.70;;;15.70;99.90;;;;;;5024914;28;20057;-62
2023/08/30 09:05:40;;;;;;;20.95;11.95;;;15.80;99.90;;;;;;5026853;28;20045;-66
2023/08/30 09:08:08;;;;;;;19.13;11.70;;;15.80;99.90;;;;;;5043881;28;20044;-63
2023/08/30 09:10:35;;;;;;;17.77;12.43;;;15.90;99.90;;;;;;5048389;28;20045;-64
2023/08/30 09:13:00;;;;;;;18.58;11.65;;;15.90;99.90;;;;;;5089059;28;20098;-65
2023/08/30 09:15:33;;;;;;;18.67;11.55;;;16.00;99.90;;;;;;5046534;28;20041;-62
2023/08/30 09:17:59;;;;;;;17.20;10.80;;;16.00;99.90;;;;;;5066002;28;20649;-63
2023/08/30 09:20:25;;;;;;;17.55;10.77;;;16.00;99.90;;;;;;5065500;28;20491;-66
2023/08/30 09:22:50;;;;;;;19.67;11.45;;;16.00;99.90;;;;;;5061172;28;20056;-68
2023/08/30 09:25:27;;;;;;;17.35;10.88;;;16.00;99.90;;;;;;5064323;28;20074;-62
2023/08/30 09:27:59;;;;;;;15.60;10.40;;;16.00;99.90;;;;;;5057673;28;20055;-65
2023/08/30 09:30:25;;;;;;;19.52;11.27;;;15.90;99.90;;;;;;5057383;28;20597;-64
2023/08/30 09:32:51;;;;;;;15.93;9.65;;;15.90;99.90;;;;;;5061109;28;20029;-63
2023/08/30 09:35:16;;;;;;;16.13;10.30;;;15.90;99.90;;;;;;5044864;28;20091;-65
2023/08/30 09:37:45;;;;;;;17.25;10.77;;;15.80;99.90;;;;;;5046283;28;20519;-63
2023/08/30 09:40:11;;;;;;;16.85;10.35;;;15.80;99.90;;;;;;5028029;28;20098;-65
2023/08/30 09:42:43;;;;;;;14.82;10.48;;;15.80;99.90;;;;;;5044093;28;20128;-64
2023/08/30 09:45:26;;;;;;;15.98;9.70;;;15.80;99.90;;;;;;5039539;28;20125;-65
2023/08/30 09:47:52;;;;;;;14.80;10.52;;;15.70;99.90;;;;;;5066150;28;20127;-64
2023/08/30 09:50:20;;;;;;;16.73;10.00;;;15.70;99.90;;;;;;5064427;28;20068;-61
2023/08/30 09:52:50;;;;;;;15.05;9.65;;;15.60;99.90;;;;;;5060331;28;20116;-65
2023/08/30 09:55:18;;;;;;;15.27;9.35;;;15.50;99.90;;;;;;5065411;28;20044;-66
2023/08/30 09:57:44;;;;;;;16.35;10.45;;;15.50;99.90;;;;;;5059431;28;20045;-62
2023/08/30 10:00:13;;;;;;;16.38;9.60;;;15.40;99.90;;;;;;5044042;28;20045;-62
2023/08/30 10:02:43;;;;;;;17.35;9.98;;;15.40;99.90;;;;;;5046213;28;20342;-62
2023/08/30 10:05:10;;;;;;;16.98;9.63;;;15.30;99.90;;;;;;5024322;28;20053;-66
2023/08/30 10:07:37;;;;;;;16.95;10.35;;;15.20;99.90;;;;;;5055236;28;20079;-64
2023/08/30 10:10:07;;;;;;;18.33;10.57;;;15.10;99.90;;;;;;5065139;28;20040;-65
2023/08/30 10:12:32;;;;;;;16.90;10.77;;;15.00;99.90;;;;;;5056316;28;20037;-64
2023/08/30 10:14:58;;;;;;;19.45;10.70;;;14.90;99.90;;;;;;5044216;28;20048;-67
2023/08/30 10:17:28;;;;;;;17.33;11.15;;;14.80;99.90;;;;;;5051857;28;20079;-63
2023/08/30 10:19:55;;;;;;;17.20;11.13;;;14.80;99.90;;;;;;5064534;28;20048;-64
2023/08/30 10:22:22;;;;;;;18.00;11.43;;;14.90;99.90;;;;;;5059899;28;20047;-63
2023/08/30 10:25:04;;;;;;;17.92;11.93;;;14.90;99.90;;;;;;5066279;28;20381;-61
2023/08/30 10:27:34;;;;;;;18.33;11.60;;;15.00;99.90;;;;;;5064574;28;20072;-66
2023/08/30 10:30:06;;;;;;;17.42;10.88;;;15.20;99.90;;;;;;5057989;28;20049;-65
2023/08/30 10:32:32;;;;;;;14.40;10.00;;;15.30;99.90;;;;;;5041475;28;20721;-64
2023/08/30 10:35:03;;;;;;;15.15;9.60;;;15.50;99.90;;;;;;5065976;28;20124;-64
2023/08/30 10:37:29;;;;;;;13.32;9.07;;;15.70;99.90;;;;;;5060285;28;20043;-66
2023/08/30 10:40:00;;;;;;;12.77;8.02;;;15.90;99.90;;;;;;5063214;28;20047;-64
2023/08/30 10:42:26;;;;;;;10.60;7.15;;;16.00;99.90;;;;;;5062848;28;20371;-66
2023/08/30 10:44:56;;;;;;;12.77;6.75;;;16.00;99.90;;;;;;5060037;28;20049;-65
2023/08/30 10:47:29;;;;;;;11.95;6.57;;;15.90;99.90;;;;;;5026960;28;20045;-64
2023/08/30 10:49:59;;;;;;;14.15;7.00;;;15.90;99.90;;;;;;5027002;28;20041;-65
2023/08/30 10:52:27;;;;;;;11.32;7.13;;;15.80;99.90;;;;;;5057000;28;20047;-65
2023/08/30 10:55:04;;;;;;;15.02;8.68;;;15.80;99.90;;;;;;5063117;28;20803;-65
2023/08/30 10:57:29;;;;;;;12.57;8.55;;;15.80;99.90;;;;;;5057960;28;20228;-64
2023/08/30 11:00:17;;;;;;;13.88;8.75;;;15.90;99.90;;;;;;5043716;28;20120;-65
2023/08/30 11:02:51;;;;;;;14.05;10.13;;;15.90;99.90;;;;;;5042425;28;20061;-65
2023/08/30 11:05:18;;;;;;;15.75;10.43;;;15.90;99.90;;;;;;5025902;28;20071;-64
2023/08/30 11:07:45;;;;;;;15.30;9.95;;;16.00;99.90;;;;;;5056204;28;20183;-63
2023/08/30 11:10:11;;;;;;;18.60;10.60;;;16.00;99.90;;;;;;5061590;28;20127;-63
2023/08/30 11:12:36;;;;;;;15.05;9.73;;;16.00;99.90;;;;;;5042420;28;20041;-64
2023/08/30 11:15:03;;;;;;;13.30;8.88;;;16.10;99.90;;;;;;5046434;28;20044;-66
2023/08/30 11:17:29;;;;;;;12.50;8.50;;;16.10;99.90;;;;;;5064234;28;20041;-66
2023/08/30 11:20:19;;;;;;;11.95;7.80;;;16.10;99.90;;;;;;5057136;28;20481;-65
2023/08/30 11:22:49;;;;;;;12.85;7.50;;;16.10;99.90;;;;;;5043573;28;20119;-65
2023/08/30 11:25:15;;;;;;;12.02;8.30;;;16.10;99.90;;;;;;5043748;28;20048;-67
2023/08/30 11:27:41;;;;;;;15.38;8.15;;;16.00;99.90;;;;;;5043091;28;20060;-66
2023/08/30 11:30:08;;;;;;;16.98;7.45;;;16.10;99.90;;;;;;5031633;28;20076;-64
2023/08/30 11:32:35;;;;;;;15.93;7.68;;;16.10;99.90;;;;;;5043980;28;20489;-66
2023/08/30 11:35:01;;;;;;;12.50;8.50;;;16.10;99.90;;;;;;5044126;28;20037;-68
2023/08/30 11:37:28;;;;;;;11.82;7.63;;;16.10;99.90;;;;;;5044228;28;20344;-64
2023/08/30 11:39:55;;;;;;;12.60;8.30;;;16.00;99.90;;;;;;5043804;28;20048;-65
2023/08/30 11:42:21;;;;;;;12.27;7.95;;;15.90;99.90;;;;;;5078638;28;20115;-64
2023/08/30 11:44:47;;;;;;;14.00;9.05;;;15.90;99.90;;;;;;5048808;28;20667;-65
2023/08/30 11:47:19;;;;;;;11.85;7.97;;;15.90;99.90;;;;;;5030907;28;20080;-66
2023/08/30 11:49:46;;;;;;;17.08;9.13;;;15.80;99.90;;;;;;5031145;28;20671;-65
2023/08/30 11:52:11;;;;;;;15.63;8.90;;;15.80;99.90;;;;;;5046311;28;20071;-66
2023/08/30 11:54:37;;;;;;;18.10;10.30;;;15.70;99.90;;;;;;5046674;28;20037;-66
2023/08/30 11:57:03;;;;;;;19.13;11.75;;;15.70;99.90;;;;;;5046456;28;20041;-64
2023/08/30 11:59:28;;;;;;;17.65;12.55;;;15.70;99.90;;;;;;5035200;28;20043;-65
2023/08/30 12:01:54;;;;;;;19.55;13.43;;;15.60;99.90;;;;;;5066740;28;20041;-65
2023/08/30 12:04:20;;;;;;;19.50;13.55;;;15.50;99.90;;;;;;5047558;28;20110;-65
2023/08/30 12:06:53;;;;;;;21.38;14.30;;;15.50;99.90;;;;;;5045636;28;20037;-64
2023/08/30 12:09:21;;;;;;;18.42;13.10;;;15.40;99.90;;;;;;5067014;28;20033;-64
2023/08/30 12:11:50;;;;;;;17.85;12.25;;;15.40;99.90;;;;;;5065144;28;20657;-63
2023/08/30 12:14:16;;;;;;;16.75;11.68;;;15.30;99.90;;;;;;5066671;28;20102;-65
2023/08/30 12:16:42;;;;;;;16.98;12.35;;;15.20;99.90;;;;;;5054891;28;20068;-64
2023/08/30 12:19:12;;;;;;;17.95;12.30;;;15.10;99.90;;;;;;5029574;28;20041;-63
2023/08/30 12:21:47;;;;;;;17.60;12.05;;;15.10;99.90;;;;;;5051903;28;20527;-66
2023/08/30 12:24:12;;;;;;;18.38;11.77;;;15.10;99.90;;;;;;5055743;28;20041;-64
2023/08/30 12:26:38;;;;;;;16.73;11.00;;;15.10;99.90;;;;;;5044815;28;20401;-64